Time;durP1;ratioP1;P1;durP2;ratioP2;P2;SDS_P1;SDS_P2;PMS_P1;PMS_P2;Temp;Humidity;BMP_temperature;BMP_pressure;BME280_temperature;BME280_humidity;BME280_pressure;Samples;Min_cycle;Max_cycle;Signal;HPM_P1;HPM_P2
2021/08/24 00:02:02;;;;;;;;;;;;;;;;;;;;;
2021/08/24 00:05:38;;;;;;;12.30;7.03;;;16.00;99.90;;;;;;5989657;23;20019;-82
2021/08/24 00:08:44;;;;;;;10.88;7.40;;;16.00;99.90;;;;;;5901048;23;20024;-80
2021/08/24 00:12:30;;;;;;;;;;;;;;;;;;;;;
2021/08/24 00:16:04;;;;;;;10.48;6.88;;;15.90;99.90;;;;;;5697923;24;20145;-82
2021/08/24 00:18:48;;;;;;;;;;;;;;;;;;;;;
2021/08/24 00:40:23;;;;;;;12.95;7.15;;;15.70;99.90;;;;;;5906447;22;3179735;-83
2021/08/24 00:47:31;;;;;;;16.85;8.40;;;15.70;99.90;;;;;;5907831;24;20035;-82
2021/08/24 00:54:59;;;;;;;;;;;;;;;;;;;;;
2021/08/24 00:57:35;;;;;;;11.30;7.60;;;15.70;99.90;;;;;;5809739;24;20078;-83
2021/08/24 01:00:47;;;;;;;13.45;7.88;;;15.70;99.90;;;;;;5866887;24;20032;-80
2021/08/24 01:04:10;;;;;;;;;;;;;;;;;;;;;
2021/08/24 01:07:06;;;;;;;17.75;8.18;;;15.70;99.90;;;;;;5769899;24;20026;-82
2021/08/24 01:09:51;;;;;;;13.48;8.98;;;15.70;99.90;;;;;;5796590;24;20046;-83
2021/08/24 01:13:03;;;;;;;;;;;;;;;;;;;;;
2021/08/24 01:15:44;;;;;;;13.90;7.80;;;15.60;99.90;;;;;;5817696;24;20030;-83
2021/08/24 01:19:04;;;;;;;;;;;;;;;;;;;;;
2021/08/24 01:21:52;;;;;;;;;;;;;;;;;;;;;
2021/08/24 01:24:33;;;;;;;13.73;8.85;;;15.60;99.90;;;;;;5698990;24;20486;-81
2021/08/24 01:27:15;;;;;;;;;;;;;;;;;;;;;
2021/08/24 01:30:19;;;;;;;10.20;8.40;;;15.60;99.90;;;;;;5696430;24;20037;-83
2021/08/24 01:33:13;;;;;;;;;;;;;;;;;;;;;
2021/08/24 01:36:39;;;;;;;16.23;9.27;;;15.60;99.90;;;;;;5742356;24;20136;-84
2021/08/24 01:39:54;;;;;;;13.77;8.75;;;15.50;99.90;;;;;;5706748;24;20039;-83
2021/08/24 01:50:22;;;;;;;16.80;9.32;;;15.40;99.90;;;;;;5694328;24;20086;-83
2021/08/24 01:53:18;;;;;;;;;;;;;;;;;;;;;
2021/08/24 01:55:53;;;;;;;17.23;10.02;;;15.40;99.90;;;;;;5721288;24;20024;-83
2021/08/24 01:58:34;;;;;;;14.75;9.43;;;15.40;99.90;;;;;;5742348;24;20093;-83
2021/08/24 02:01:18;;;;;;;11.48;9.10;;;15.40;99.90;;;;;;5826376;24;20022;-81
2021/08/24 02:03:57;;;;;;;14.27;9.25;;;15.40;99.90;;;;;;5786099;24;20346;-83
2021/08/24 02:06:46;;;;;;;14.48;9.27;;;15.30;99.90;;;;;;5862132;24;20074;-82
2021/08/24 02:09:29;;;;;;;15.63;10.20;;;15.30;99.90;;;;;;5916283;23;20025;-82
2021/08/24 02:12:24;;;;;;;20.45;10.07;;;15.30;99.90;;;;;;6131348;23;20029;-82
2021/08/24 02:15:05;;;;;;;;;;;;;;;;;;;;;
2021/08/24 02:17:49;;;;;;;14.05;9.93;;;15.20;99.90;;;;;;6167945;23;20040;-83
2021/08/24 02:20:40;;;;;;;;;;;;;;;;;;;;;
2021/08/24 02:23:31;;;;;;;13.00;9.55;;;15.20;99.90;;;;;;6150260;23;20017;-82
2021/08/24 02:26:13;;;;;;;12.80;9.50;;;15.10;99.90;;;;;;6143858;23;20025;-83
2021/08/24 02:28:58;;;;;;;12.73;10.00;;;15.10;99.90;;;;;;6104404;23;20034;-83
2021/08/24 02:32:17;;;;;;;17.65;10.32;;;15.10;99.90;;;;;;6152498;23;20087;-83
2021/08/24 02:35:29;;;;;;;;;;;;;;;;;;;;;
2021/08/24 02:38:30;;;;;;;14.30;10.00;;;15.00;99.90;;;;;;5806995;24;20584;-82
2021/08/24 02:45:00;;;;;;;14.13;10.00;;;15.00;99.90;;;;;;5793090;24;20371;-82
2021/08/24 02:48:26;;;;;;;18.73;10.50;;;15.00;99.90;;;;;;5744749;24;20058;-83
2021/08/24 02:51:17;;;;;;;12.38;10.18;;;15.00;99.90;;;;;;5754632;24;20081;-83
2021/08/24 02:54:08;;;;;;;16.13;9.85;;;15.00;99.90;;;;;;5775858;24;20023;-83
2021/08/24 02:57:02;;;;;;;;;;;;;;;;;;;;;
2021/08/24 02:59:45;;;;;;;14.05;10.93;;;14.90;99.90;;;;;;5891644;24;20032;-83
2021/08/24 03:02:31;;;;;;;13.80;10.95;;;14.90;99.90;;;;;;5849011;24;20543;-81
2021/08/24 03:05:07;;;;;;;14.50;10.80;;;14.90;99.90;;;;;;5851384;24;20039;-82
2021/08/24 03:07:40;;;;;;;18.13;11.77;;;14.90;99.90;;;;;;5797370;24;20105;-83
2021/08/24 03:10:23;;;;;;;15.70;11.65;;;14.90;99.90;;;;;;5908629;24;20029;-81
2021/08/24 03:13:46;;;;;;;17.83;12.68;;;14.90;99.90;;;;;;5951362;24;20067;-83
2021/08/24 03:16:22;;;;;;;16.92;12.43;;;14.90;99.90;;;;;;6044731;23;20375;-83
2021/08/24 03:19:31;;;;;;;16.38;11.95;;;14.80;99.90;;;;;;5915899;24;20025;-82
2021/08/24 03:22:17;;;;;;;20.55;12.48;;;14.80;99.90;;;;;;5903290;24;20099;-82
2021/08/24 03:25:19;;;;;;;14.80;11.95;;;14.80;99.90;;;;;;5946382;23;20507;-82
2021/08/24 03:28:01;;;;;;;16.65;12.60;;;14.80;99.90;;;;;;5919085;24;20028;-82
2021/08/24 03:30:37;;;;;;;18.85;12.52;;;14.80;99.90;;;;;;5905548;24;20065;-83
2021/08/24 03:33:45;;;;;;;;;;;;;;;;;;;;;
2021/08/24 03:37:15;;;;;;;;;;;;;;;;;;;;;
2021/08/24 03:40:17;;;;;;;18.83;12.57;;;14.70;99.90;;;;;;5856707;24;20083;-83
2021/08/24 03:43:00;;;;;;;19.83;13.30;;;14.70;99.90;;;;;;5835783;24;20025;-83
2021/08/24 03:45:48;;;;;;;16.52;12.85;;;14.70;99.90;;;;;;5882955;24;20503;-83
2021/08/24 03:48:29;;;;;;;24.73;13.30;;;14.70;99.90;;;;;;5853846;24;20018;-82
2021/08/24 03:51:31;;;;;;;;;;;;;;;;;;;;;
2021/08/24 03:54:15;;;;;;;19.65;13.85;;;14.70;99.90;;;;;;5771480;24;20034;-80
2021/08/24 03:56:50;;;;;;;17.80;13.40;;;14.60;99.90;;;;;;5804859;24;20022;-82
2021/08/24 04:00:02;;;;;;;16.55;13.07;;;14.70;99.90;;;;;;5813368;24;20088;-80
2021/08/24 04:02:45;;;;;;;19.13;14.07;;;14.70;99.90;;;;;;5803196;24;20428;-82
2021/08/24 04:05:17;;;;;;;22.58;13.98;;;14.70;99.90;;;;;;5847569;24;20069;-81
2021/08/24 04:07:52;;;;;;;19.17;14.07;;;14.70;99.90;;;;;;5900841;24;20029;-84
2021/08/24 04:10:40;;;;;;;18.75;14.65;;;14.70;99.90;;;;;;5874757;24;20032;-80
2021/08/24 04:13:37;;;;;;;19.50;14.65;;;14.70;99.90;;;;;;5838451;24;20017;-82
2021/08/24 04:16:46;;;;;;;23.90;14.82;;;14.70;99.90;;;;;;5802937;24;20486;-82
2021/08/24 04:19:14;;;;;;;17.67;13.38;;;14.70;99.90;;;;;;5836301;24;20055;-84
2021/08/24 04:22:18;;;;;;;22.80;14.63;;;14.60;99.90;;;;;;5908250;23;20065;-82
2021/08/24 04:24:58;;;;;;;19.10;13.77;;;14.60;99.90;;;;;;5961954;23;20023;-80
2021/08/24 04:28:09;;;;;;;18.92;14.07;;;14.60;99.90;;;;;;5995455;23;20045;-82
2021/08/24 04:31:51;;;;;;;18.00;14.32;;;14.60;99.90;;;;;;5813182;24;20037;-82
2021/08/24 04:34:40;;;;;;;22.60;14.80;;;14.60;99.90;;;;;;5819084;24;20069;-80
2021/08/24 04:37:12;;;;;;;20.10;14.88;;;14.60;99.90;;;;;;5834350;24;20106;-81
2021/08/24 04:39:41;;;;;;;21.48;14.60;;;14.60;99.90;;;;;;5830491;24;20037;-82
2021/08/24 04:42:41;;;;;;;20.73;14.23;;;14.60;99.90;;;;;;5711956;24;20076;-82
2021/08/24 04:45:23;;;;;;;;;;;;;;;;;;;;;
2021/08/24 04:51:49;;;;;;;25.23;14.48;;;14.50;99.90;;;;;;5733049;24;20089;-84
2021/08/24 04:55:26;;;;;;;20.88;14.93;;;14.50;99.90;;;;;;5809939;24;20376;-83
2021/08/24 04:58:08;;;;;;;;;;;;;;;;;;;;;
2021/08/24 05:01:15;;;;;;;;;;;;;;;;;;;;;
2021/08/24 05:03:47;;;;;;;21.20;15.70;;;14.40;99.90;;;;;;5824186;24;20506;-83
2021/08/24 05:06:54;;;;;;;22.65;16.83;;;14.50;99.90;;;;;;5899279;24;20043;-83
2021/08/24 05:09:26;;;;;;;20.27;16.35;;;14.50;99.90;;;;;;6052460;23;20050;-83
2021/08/24 05:12:19;;;;;;;20.90;16.20;;;14.50;99.90;;;;;;5919358;24;20048;-84
2021/08/24 05:15:05;;;;;;;22.58;15.93;;;14.50;99.90;;;;;;5920778;24;20020;-83
2021/08/24 05:17:36;;;;;;;27.20;16.50;;;14.40;99.90;;;;;;5920304;24;20024;-84
2021/08/24 05:20:36;;;;;;;21.40;15.25;;;14.40;99.90;;;;;;5938190;24;20331;-80
2021/08/24 05:23:57;;;;;;;24.98;15.43;;;14.40;99.90;;;;;;5895857;24;20032;-83
2021/08/24 05:33:45;;;;;;;21.00;13.90;;;14.50;99.90;;;;;;5793441;24;20021;-83
2021/08/24 05:36:56;;;;;;;19.05;13.52;;;14.50;99.90;;;;;;5761361;24;20039;-84
2021/08/24 05:39:57;;;;;;;19.42;13.27;;;14.50;99.90;;;;;;5760901;24;20114;-82
2021/08/24 05:59:58;;;;;;;18.35;12.45;;;14.60;99.90;;;;;;5994986;23;20102;-83
2021/08/24 06:03:22;;;;;;;20.23;12.73;;;14.60;99.90;;;;;;5958363;23;20102;-84
2021/08/24 06:07:07;;;;;;;;;;;;;;;;;;;;;
2021/08/24 06:13:38;;;;;;;;;;;;;;;;;;;;;
2021/08/24 06:16:15;;;;;;;20.73;12.20;;;14.70;99.90;;;;;;5809536;24;20029;-79
2021/08/24 06:19:22;;;;;;;;;;;;;;;;;;;;;
2021/08/24 06:22:13;;;;;;;15.35;11.10;;;14.80;99.90;;;;;;5748674;24;20053;-83
2021/08/24 08:58:57;;;;;;;;;;;;;;;;;;;;;
2021/08/24 09:05:57;;;;;;;7.45;3.38;;;19.50;99.90;;;;;;5917139;23;20028;-83
2021/08/24 09:08:31;;;;;;;10.50;3.30;;;19.70;99.90;;;;;;6051716;23;20037;-83
2021/08/24 09:11:43;;;;;;;;;;;;;;;;;;;;;
2021/08/24 09:15:08;;;;;;;;;;;;;;;;;;;;;
2021/08/24 09:18:30;;;;;;;;;;;;;;;;;;;;;
2021/08/24 09:36:22;;;;;;;8.43;4.15;;;20.20;99.90;;;;;;6164897;22;20194;-84
2021/08/24 09:39:15;;;;;;;10.15;4.18;;;20.40;99.90;;;;;;6108729;23;20037;-82
2021/08/24 09:42:55;;;;;;;;;;;;;;;;;;;;;
2021/08/24 09:46:33;;;;;;;;;;;;;;;;;;;;;
2021/08/24 09:53:47;;;;;;;;;;;;;;;;;;;;;
2021/08/24 09:57:03;;;;;;;;;;;;;;;;;;;;;
2021/08/24 10:00:06;;;;;;;;;;;;;;;;;;;;;
2021/08/24 10:02:46;;;;;;;13.60;4.53;;;20.90;99.90;;;;;;5763964;24;20027;-83
2021/08/24 10:22:19;;;;;;;;;;;;;;;;;;;;;
2021/08/24 10:25:50;;;;;;;;;;;;;;;;;;;;;
2021/08/24 10:34:04;;;;;;;;;;;;;;;;;;;;;
2021/08/24 10:37:20;;;;;;;6.80;5.32;;;20.90;99.90;;;;;;5908440;23;20068;-83
2021/08/24 10:54:17;;;;;;;7.22;4.38;;;21.40;99.90;;;;;;4972942;22;27229069;-83
2021/08/24 11:29:41;;;;;;;;;;;;;;;;;;;;;
2021/08/24 11:47:26;;;;;;;;;;;;;;;;;;;;;
2021/08/24 12:05:02;;;;;;;;;;;;;;;;;;;;;
2021/08/24 12:08:01;;;;;;;9.00;5.80;;;21.70;99.90;;;;;;5954004;23;20088;-84
2021/08/24 12:14:47;;;;;;;14.85;6.47;;;21.90;99.90;;;;;;5717157;24;20053;-82
2021/08/24 12:40:07;;;;;;;;;;;;;;;;;;;;;
2021/08/24 12:43:14;;;;;;;;;;;;;;;;;;;;;
2021/08/24 12:46:23;;;;;;;10.68;7.20;;;23.40;99.90;;;;;;5994553;23;20466;-84
2021/08/24 12:49:32;;;;;;;;;;;;;;;;;;;;;
2021/08/24 12:52:21;;;;;;;15.73;7.40;;;22.80;99.90;;;;;;6026782;23;20019;-84
2021/08/24 12:55:30;;;;;;;12.50;6.20;;;22.70;99.90;;;;;;6001633;23;20400;-83
2021/08/24 12:59:22;;;;;;;;;;;;;;;;;;;;;
2021/08/24 13:02:32;;;;;;;;;;;;;;;;;;;;;
2021/08/24 13:05:19;;;;;;;14.52;6.85;;;22.30;99.90;;;;;;5796036;24;20452;-81
2021/08/24 13:08:11;;;;;;;;;;;;;;;;;;;;;
2021/08/24 13:11:31;;;;;;;;;;;;;;;;;;;;;
2021/08/24 13:14:40;;;;;;;15.05;6.50;;;22.20;99.90;;;;;;5778906;24;20022;-83
2021/08/24 13:17:30;;;;;;;11.23;6.00;;;22.00;99.90;;;;;;5789748;24;20534;-84
2021/08/24 13:20:39;;;;;;;13.98;6.30;;;22.10;99.90;;;;;;5818311;24;20064;-82
2021/08/24 13:23:24;;;;;;;10.30;6.30;;;22.20;99.90;;;;;;5809978;24;20026;-84
2021/08/24 13:26:36;;;;;;;12.82;5.93;;;22.30;99.90;;;;;;5745985;24;20656;-84
2021/08/24 13:29:27;;;;;;;9.07;5.93;;;22.40;99.90;;;;;;5803635;24;20026;-82
2021/08/24 13:32:38;;;;;;;;;;;;;;;;;;;;;
2021/08/24 13:36:05;;;;;;;;;;;;;;;;;;;;;
2021/08/24 15:14:33;;;;;;;;;;;;;;;;;;;;;
2021/08/24 15:17:30;;;;;;;7.15;3.13;;;24.50;99.90;;;;;;5980122;23;20028;-79
2021/08/24 15:23:40;;;;;;;11.43;3.60;;;24.50;99.90;;;;;;6010383;23;20031;-84
2021/08/24 15:26:36;;;;;;;;;;;;;;;;;;;;;
2021/08/24 15:29:17;;;;;;;5.70;3.28;;;24.50;99.90;;;;;;5953003;23;20340;-82
2021/08/24 15:32:34;;;;;;;6.70;3.08;;;24.50;99.90;;;;;;6007623;23;20019;-83
2021/08/24 15:35:45;;;;;;;6.93;3.33;;;24.50;99.90;;;;;;5883297;24;20454;-84
2021/08/24 15:39:08;;;;;;;9.23;3.25;;;24.50;99.90;;;;;;5922445;24;20038;-84
2021/08/24 15:41:49;;;;;;;6.30;3.08;;;24.40;99.90;;;;;;5873918;24;20028;-83
2021/08/24 15:44:58;;;;;;;;;;;;;;;;;;;;;
2021/08/24 15:47:51;;;;;;;7.97;3.10;;;24.20;99.90;;;;;;5888809;24;20057;-82
2021/08/24 15:50:43;;;;;;;9.32;3.38;;;24.20;99.90;;;;;;5924903;24;20020;-83
2021/08/24 15:53:54;;;;;;;8.13;3.55;;;24.10;99.90;;;;;;5843789;23;20029;-83
2021/08/24 15:57:07;;;;;;;;;;;;;;;;;;;;;
2021/08/24 16:00:05;;;;;;;7.70;3.08;;;23.90;99.90;;;;;;5777994;24;20490;-83
2021/08/24 17:11:09;;;;;;;10.23;3.40;;;23.50;99.90;;;;;;6190675;23;20075;-80
2021/08/24 17:14:42;;;;;;;5.93;3.13;;;23.50;99.90;;;;;;6166305;23;20096;-83
2021/08/24 17:17:10;;;;;;;9.55;3.53;;;23.50;99.90;;;;;;6099324;23;20026;-78
2021/08/24 17:19:37;;;;;;;6.05;3.03;;;23.50;99.90;;;;;;6124213;23;20029;-78
2021/08/24 17:22:04;;;;;;;8.93;3.20;;;23.50;99.90;;;;;;6123660;23;20018;-75
2021/08/24 17:24:41;;;;;;;10.20;3.78;;;23.60;99.90;;;;;;6124125;23;20572;-76
2021/08/24 17:27:09;;;;;;;6.03;2.88;;;23.50;99.90;;;;;;6123132;23;20022;-76
2021/08/24 17:29:37;;;;;;;8.17;3.13;;;23.50;99.90;;;;;;6123992;23;20040;-76
2021/08/24 17:32:04;;;;;;;6.30;3.10;;;23.40;99.90;;;;;;6123247;23;20254;-76
2021/08/24 17:34:31;;;;;;;12.05;4.00;;;23.40;99.90;;;;;;6123780;23;20431;-78
2021/08/24 17:36:59;;;;;;;6.95;3.30;;;23.30;99.90;;;;;;6099755;23;20022;-79
2021/08/24 17:39:26;;;;;;;9.10;3.75;;;23.30;99.90;;;;;;6122004;23;20026;-78
2021/08/24 17:41:54;;;;;;;8.73;2.92;;;23.30;99.90;;;;;;6122411;23;20029;-79
2021/08/24 17:44:21;;;;;;;9.80;3.40;;;23.20;99.90;;;;;;6122444;23;20445;-80
2021/08/24 17:46:49;;;;;;;6.60;3.15;;;23.20;99.90;;;;;;6123266;23;20022;-79
2021/08/24 17:49:21;;;;;;;13.18;3.30;;;23.20;99.90;;;;;;6122475;23;20033;-77
2021/08/24 17:51:49;;;;;;;8.65;3.10;;;23.20;99.90;;;;;;6149246;23;20025;-78
2021/08/24 17:54:16;;;;;;;9.70;3.50;;;23.30;99.90;;;;;;6128990;23;20446;-77
2021/08/24 17:56:43;;;;;;;5.43;2.90;;;23.30;99.90;;;;;;6128881;23;20096;-81
2021/08/24 17:59:10;;;;;;;7.88;2.97;;;23.50;99.90;;;;;;6128807;23;20022;-80
2021/08/24 18:01:37;;;;;;;6.55;2.72;;;23.70;99.90;;;;;;6129647;23;20336;-79
2021/08/24 18:04:04;;;;;;;6.25;2.80;;;24.10;99.90;;;;;;6128697;23;20021;-79
2021/08/24 18:06:38;;;;;;;9.15;3.53;;;24.40;99.90;;;;;;6129539;23;20040;-79
2021/08/24 18:09:16;;;;;;;8.13;2.90;;;24.50;99.90;;;;;;6128465;23;20032;-78
2021/08/24 18:11:44;;;;;;;6.82;2.70;;;24.80;99.90;;;;;;6178633;23;20021;-78
2021/08/24 18:14:11;;;;;;;6.88;2.83;;;25.00;99.90;;;;;;6128377;23;20013;-81
2021/08/24 18:16:38;;;;;;;7.50;2.83;;;25.30;99.90;;;;;;6129584;23;20028;-79
2021/08/24 18:19:11;;;;;;;7.53;2.90;;;25.50;99.90;;;;;;6125559;23;20022;-79
2021/08/24 18:21:51;;;;;;;11.88;3.00;;;25.40;99.90;;;;;;6146166;23;20022;-82
2021/08/24 18:24:24;;;;;;;8.63;2.90;;;25.40;99.90;;;;;;6151216;23;20025;-81
